Time;durP1;ratioP1;P1;durP2;ratioP2;P2;SDS_P1;SDS_P2;PMS_P1;PMS_P2;Temp;Humidity;BMP_temperature;BMP_pressure;BME280_temperature;BME280_humidity;BME280_pressure;Samples;Min_cycle;Max_cycle;Signal;HPM_P1;HPM_P2
2023/12/23 00:01:22;;;;;;;13.43;0.70;;;;;;;;;;5050297;28;20502;-70
2023/12/23 00:03:48;;;;;;;8.73;0.80;;;;;;;;;;5035327;28;20045;-70
2023/12/23 00:06:14;;;;;;;11.90;0.95;;;;;;;;;;5035451;28;20049;-71
2023/12/23 00:08:40;;;;;;;9.18;0.85;;;;;;;;;;5035412;28;20095;-70
2023/12/23 00:11:07;;;;;;;12.80;0.65;;;;;;;;;;5035847;28;20053;-70
2023/12/23 00:13:33;;;;;;;11.10;0.70;;;;;;;;;;5035192;28;20533;-70
2023/12/23 00:15:59;;;;;;;10.85;1.33;;;;;;;;;;5036003;28;20077;-70
2023/12/23 00:18:25;;;;;;;10.43;0.60;;;;;;;;;;5035138;28;20140;-70
2023/12/23 00:20:51;;;;;;;11.88;1.10;;;;;;;;;;5035146;28;20091;-70
2023/12/23 00:23:17;;;;;;;10.15;0.75;;;;;;;;;;5017510;28;20057;-71
2023/12/23 00:25:44;;;;;;;12.40;0.88;;;;;;;;;;5035081;28;20135;-70
2023/12/23 00:28:10;;;;;;;9.50;0.90;;;;;;;;;;5034908;28;20052;-70
2023/12/23 00:30:36;;;;;;;13.02;1.30;;;;;;;;;;5034978;28;20104;-70
2023/12/23 00:33:05;;;;;;;11.45;0.70;;;;;;;;;;5017376;28;20111;-72
2023/12/23 00:35:31;;;;;;;11.63;0.52;;;;;;;;;;5017342;28;20129;-71
2023/12/23 00:37:57;;;;;;;17.30;1.33;;;;;;;;;;5017075;28;20050;-69
2023/12/23 00:40:23;;;;;;;11.27;1.02;;;;;;;;;;5035549;28;20408;-70
2023/12/23 00:42:49;;;;;;;10.13;0.80;;;;;;;;;;5034834;28;20052;-70
2023/12/23 00:45:15;;;;;;;14.10;1.10;;;;;;;;;;5050249;28;20124;-69
2023/12/23 00:47:41;;;;;;;8.18;0.70;;;;;;;;;;5034961;28;20046;-71
2023/12/23 00:50:07;;;;;;;9.32;0.85;;;;;;;;;;5017431;28;20128;-70
2023/12/23 00:52:33;;;;;;;11.73;1.57;;;;;;;;;;5018068;28;20117;-71
2023/12/23 00:54:59;;;;;;;13.23;1.50;;;;;;;;;;5034652;28;20045;-70
2023/12/23 00:57:26;;;;;;;10.75;0.52;;;;;;;;;;5034389;28;20156;-71
2023/12/23 00:59:54;;;;;;;8.88;0.90;;;;;;;;;;5033349;28;20433;-69
2023/12/23 01:02:20;;;;;;;10.63;0.57;;;;;;;;;;5016742;28;20057;-71
2023/12/23 01:04:46;;;;;;;8.93;0.80;;;;;;;;;;5034375;28;20045;-70
2023/12/23 01:07:13;;;;;;;14.57;1.17;;;;;;;;;;5016500;28;20052;-70
2023/12/23 01:09:39;;;;;;;13.07;1.30;;;;;;;;;;5034263;28;20049;-70
2023/12/23 01:12:05;;;;;;;9.52;0.93;;;;;;;;;;5016671;28;20049;-70
2023/12/23 01:14:31;;;;;;;12.25;1.00;;;;;;;;;;5015931;28;20109;-69
2023/12/23 01:16:57;;;;;;;14.23;1.02;;;;;;;;;;5033902;28;20056;-70
2023/12/23 01:19:24;;;;;;;11.57;1.20;;;;;;;;;;5034532;28;20050;-72
2023/12/23 01:21:50;;;;;;;8.17;0.60;;;;;;;;;;5016605;28;20446;-70
2023/12/23 01:24:16;;;;;;;17.10;0.80;;;;;;;;;;5033915;28;20339;-70
2023/12/23 01:26:42;;;;;;;8.35;0.57;;;;;;;;;;5033823;28;20072;-70
2023/12/23 01:29:08;;;;;;;13.32;0.73;;;;;;;;;;5016814;28;20055;-70
2023/12/23 01:31:34;;;;;;;10.82;1.40;;;;;;;;;;5016295;28;20103;-70
2023/12/23 01:34:00;;;;;;;12.25;0.75;;;;;;;;;;5034606;28;20045;-70
2023/12/23 01:36:26;;;;;;;7.30;0.40;;;;;;;;;;5034519;28;20119;-70
2023/12/23 01:38:53;;;;;;;11.48;0.88;;;;;;;;;;5033799;28;20526;-71
2023/12/23 01:41:19;;;;;;;13.13;1.45;;;;;;;;;;5015994;28;20053;-70
2023/12/23 01:43:45;;;;;;;16.20;1.15;;;;;;;;;;5049006;28;20110;-70
2023/12/23 01:46:11;;;;;;;7.75;0.75;;;;;;;;;;5033706;28;20054;-70
2023/12/23 01:48:40;;;;;;;9.83;0.50;;;;;;;;;;5033587;28;20041;-70
2023/12/23 01:51:06;;;;;;;11.82;0.50;;;;;;;;;;5033545;28;20056;-70
2023/12/23 01:53:32;;;;;;;13.17;0.50;;;;;;;;;;5034274;28;20421;-70
2023/12/23 01:55:59;;;;;;;8.93;0.45;;;;;;;;;;5033485;28;20045;-71
2023/12/23 01:58:25;;;;;;;11.75;0.82;;;;;;;;;;5033394;28;20120;-70
2023/12/23 02:00:51;;;;;;;9.70;0.70;;;;;;;;;;5033848;28;20103;-70
2023/12/23 02:03:18;;;;;;;14.57;1.00;;;;;;;;;;5033878;28;20064;-70
2023/12/23 02:05:45;;;;;;;8.85;0.50;;;;;;;;;;5016003;28;20053;-69
2023/12/23 02:08:12;;;;;;;12.93;0.70;;;;;;;;;;5033855;28;20132;-70
2023/12/23 02:10:39;;;;;;;10.20;0.63;;;;;;;;;;5033345;28;20057;-70
2023/12/23 02:13:05;;;;;;;11.20;0.60;;;;;;;;;;5033764;28;20111;-71
2023/12/23 02:15:31;;;;;;;12.65;0.95;;;;;;;;;;5033222;28;20064;-70
2023/12/23 02:18:01;;;;;;;11.50;0.80;;;;;;;;;;5033651;28;20103;-71
2023/12/23 02:20:28;;;;;;;10.10;0.50;;;;;;;;;;5016656;28;20126;-70
2023/12/23 02:22:54;;;;;;;15.98;0.90;;;;;;;;;;5033814;28;20049;-71
2023/12/23 02:25:21;;;;;;;9.03;0.87;;;;;;;;;;5034136;28;20175;-71
2023/12/23 02:28:07;;;;;;;10.10;0.75;;;;;;;;;;5037251;28;20508;-70
2023/12/23 02:30:34;;;;;;;7.70;0.30;;;;;;;;;;5037457;28;20057;-69
2023/12/23 02:33:00;;;;;;;6.43;0.38;;;;;;;;;;5019532;28;20042;-70
2023/12/23 02:35:27;;;;;;;7.77;0.53;;;;;;;;;;5037151;28;20052;-71
2023/12/23 02:37:54;;;;;;;12.85;0.68;;;;;;;;;;5037653;28;20050;-70
2023/12/23 02:40:21;;;;;;;7.10;0.30;;;;;;;;;;5037061;28;20055;-70
2023/12/23 02:42:47;;;;;;;5.30;0.40;;;;;;;;;;5052318;28;20046;-71
2023/12/23 02:45:13;;;;;;;6.40;0.28;;;;;;;;;;5036998;28;20077;-71
2023/12/23 02:47:39;;;;;;;14.68;0.40;;;;;;;;;;5036806;28;20045;-70
2023/12/23 02:50:05;;;;;;;7.90;0.40;;;;;;;;;;5036818;28;20141;-70
2023/12/23 02:52:31;;;;;;;9.27;0.60;;;;;;;;;;5036833;28;20155;-70
2023/12/23 02:54:57;;;;;;;11.30;0.55;;;;;;;;;;5037421;28;20050;-70
2023/12/23 02:57:24;;;;;;;5.25;0.30;;;;;;;;;;5019271;28;20560;-71
2023/12/23 02:59:50;;;;;;;9.23;0.50;;;;;;;;;;5019572;28;20045;-71
2023/12/23 03:02:16;;;;;;;9.05;0.30;;;;;;;;;;5036688;28;20060;-71
2023/12/23 03:04:42;;;;;;;8.52;0.77;;;;;;;;;;5036552;28;20053;-71
2023/12/23 03:07:08;;;;;;;7.10;0.32;;;;;;;;;;5036517;28;20045;-71
2023/12/23 03:09:35;;;;;;;5.20;0.30;;;;;;;;;;5018944;28;20183;-71
2023/12/23 03:12:01;;;;;;;5.75;0.70;;;;;;;;;;5036770;28;20053;-70
2023/12/23 03:14:27;;;;;;;6.40;0.50;;;;;;;;;;5036397;28;20045;-71
2023/12/23 03:16:53;;;;;;;7.65;0.40;;;;;;;;;;5036555;28;20110;-71
2023/12/23 03:19:19;;;;;;;8.80;0.60;;;;;;;;;;5033767;28;20053;-70
2023/12/23 03:21:46;;;;;;;6.82;0.30;;;;;;;;;;5035159;28;20049;-72
2023/12/23 03:24:12;;;;;;;8.15;0.50;;;;;;;;;;5035132;28;20049;-70
2023/12/23 03:26:38;;;;;;;9.05;0.40;;;;;;;;;;5034982;28;20047;-71
2023/12/23 03:29:05;;;;;;;5.90;0.47;;;;;;;;;;5035240;28;20140;-71
2023/12/23 03:31:32;;;;;;;9.20;0.70;;;;;;;;;;5035127;28;20864;-71
2023/12/23 03:33:59;;;;;;;8.02;0.30;;;;;;;;;;5017214;28;20049;-70
2023/12/23 03:36:27;;;;;;;8.82;0.60;;;;;;;;;;5035285;28;20426;-71
2023/12/23 03:38:53;;;;;;;4.97;0.38;;;;;;;;;;5017437;28;20398;-70
2023/12/23 03:41:19;;;;;;;4.15;0.40;;;;;;;;;;5034570;28;20490;-69
2023/12/23 03:43:45;;;;;;;3.40;0.20;;;;;;;;;;5034745;28;20082;-69
2023/12/23 03:46:11;;;;;;;7.10;0.38;;;;;;;;;;5001020;28;20057;-70
2023/12/23 03:48:37;;;;;;;5.13;0.38;;;;;;;;;;5016898;28;20486;-71
2023/12/23 03:51:03;;;;;;;6.88;0.32;;;;;;;;;;5034676;28;20038;-70
2023/12/23 03:53:29;;;;;;;3.78;0.30;;;;;;;;;;5017036;28;20128;-69
2023/12/23 03:55:55;;;;;;;4.68;0.20;;;;;;;;;;5034565;28;20045;-69
2023/12/23 03:58:22;;;;;;;3.15;0.17;;;;;;;;;;5034537;28;20048;-70
2023/12/23 04:00:48;;;;;;;5.65;0.30;;;;;;;;;;5034238;28;20049;-71
2023/12/23 04:03:14;;;;;;;7.30;0.28;;;;;;;;;;5001373;28;20156;-69
2023/12/23 04:05:40;;;;;;;5.20;0.20;;;;;;;;;;5019745;28;20052;-70
2023/12/23 04:08:06;;;;;;;5.88;0.20;;;;;;;;;;5024110;28;20050;-69
2023/12/23 04:10:32;;;;;;;5.70;0.30;;;;;;;;;;5020180;28;20103;-71
2023/12/23 04:12:58;;;;;;;5.43;0.65;;;;;;;;;;5035318;28;20052;-70
2023/12/23 04:15:25;;;;;;;3.40;0.30;;;;;;;;;;5016827;28;20049;-70
2023/12/23 04:17:51;;;;;;;2.03;0.67;;;;;;;;;;4961617;28;1116729;-70
2023/12/23 04:20:17;;;;;;;4.47;0.20;;;;;;;;;;5035736;28;20056;-69
2023/12/23 04:22:48;;;;;;;4.40;0.17;;;;;;;;;;5035130;28;20080;-69
2023/12/23 04:25:14;;;;;;;4.47;0.17;;;;;;;;;;5035783;28;20056;-69
2023/12/23 04:27:40;;;;;;;5.95;0.20;;;;;;;;;;5017187;28;20049;-68
2023/12/23 04:30:07;;;;;;;4.72;0.20;;;;;;;;;;5017883;28;20096;-68
2023/12/23 04:32:33;;;;;;;2.63;0.20;;;;;;;;;;5034939;28;20045;-69
2023/12/23 04:34:59;;;;;;;3.92;0.20;;;;;;;;;;5035417;28;20060;-68
2023/12/23 04:37:26;;;;;;;4.75;0.15;;;;;;;;;;5033834;28;20053;-69
2023/12/23 04:39:53;;;;;;;8.38;0.57;;;;;;;;;;5000731;28;20490;-69
2023/12/23 04:42:19;;;;;;;4.40;0.20;;;;;;;;;;5034957;28;20049;-69
2023/12/23 04:44:45;;;;;;;3.03;0.10;;;;;;;;;;5001735;28;20084;-69
2023/12/23 04:47:12;;;;;;;5.60;0.28;;;;;;;;;;5034472;28;20037;-69
2023/12/23 04:49:38;;;;;;;2.28;0.25;;;;;;;;;;5016867;28;20037;-70
2023/12/23 04:52:05;;;;;;;5.18;0.50;;;;;;;;;;5016965;28;20399;-69
2023/12/23 04:54:32;;;;;;;2.95;0.20;;;;;;;;;;5017337;28;20398;-70
2023/12/23 04:56:58;;;;;;;;;;;;;;;;;;5034829;28;20049;-69
2023/12/23 04:59:24;;;;;;;1.92;0.30;;;;;;;;;;5034446;28;19970;-68
2023/12/23 05:01:50;;;;;;;3.33;0.40;;;;;;;;;;5016734;28;20142;-68
2023/12/23 05:04:17;;;;;;;0.90;0.30;;;;;;;;;;5034404;28;20053;-67
2023/12/23 05:06:43;;;;;;;2.17;0.40;;;;;;;;;;5034230;28;20041;-69
2023/12/23 05:09:09;;;;;;;3.13;0.30;;;;;;;;;;5049592;28;20045;-68
2023/12/23 05:11:35;;;;;;;3.53;0.40;;;;;;;;;;5001281;28;20051;-68
2023/12/23 05:14:01;;;;;;;2.75;0.47;;;;;;;;;;5049374;28;20105;-69
2023/12/23 05:16:27;;;;;;;1.98;0.50;;;;;;;;;;5034201;28;20080;-69
2023/12/23 05:18:53;;;;;;;4.07;0.63;;;;;;;;;;5016061;28;20061;-68
2023/12/23 05:21:19;;;;;;;2.70;0.50;;;;;;;;;;5016733;28;20194;-68
2023/12/23 05:23:46;;;;;;;7.75;0.85;;;;;;;;;;5000302;28;20459;-68
2023/12/23 05:26:12;;;;;;;11.48;1.88;;;;;;;;;;5033963;28;20046;-69
2023/12/23 05:28:38;;;;;;;9.27;1.85;;;;;;;;;;5033907;28;20441;-67
2023/12/23 05:31:04;;;;;;;13.50;1.77;;;;;;;;;;5016444;28;20057;-68
2023/12/23 05:33:30;;;;;;;13.88;1.65;;;;;;;;;;5033940;28;20041;-69
2023/12/23 05:35:57;;;;;;;10.40;1.85;;;;;;;;;;5017203;28;20119;-67
2023/12/23 05:38:23;;;;;;;11.15;1.38;;;;;;;;;;5000170;28;20368;-69
2023/12/23 05:40:49;;;;;;;9.30;1.30;;;;;;;;;;5033751;28;20045;-70
2023/12/23 05:43:15;;;;;;;10.20;1.42;;;;;;;;;;5032749;28;20496;-69
2023/12/23 05:45:41;;;;;;;10.70;1.25;;;;;;;;;;5016431;28;20363;-65
2023/12/23 05:48:08;;;;;;;14.82;1.67;;;;;;;;;;5048847;28;20139;-68
2023/12/23 05:50:34;;;;;;;10.88;1.67;;;;;;;;;;4999671;28;20569;-69
2023/12/23 05:53:00;;;;;;;10.50;1.40;;;;;;;;;;5049408;28;20441;-68
2023/12/23 05:55:26;;;;;;;11.32;1.40;;;;;;;;;;5032349;28;20080;-67
2023/12/23 05:57:52;;;;;;;14.87;1.50;;;;;;;;;;5034297;28;20125;-68
2023/12/23 06:00:20;;;;;;;8.55;1.50;;;;;;;;;;5015964;28;20046;-68
2023/12/23 06:02:46;;;;;;;12.07;1.95;;;;;;;;;;5048630;28;20049;-69
2023/12/23 06:05:12;;;;;;;11.17;2.03;;;;;;;;;;5033414;28;20045;-67
2023/12/23 06:07:38;;;;;;;17.02;1.95;;;;;;;;;;5048583;28;20311;-68
2023/12/23 06:10:05;;;;;;;13.80;2.20;;;;;;;;;;5015873;28;20522;-68
2023/12/23 06:12:31;;;;;;;17.15;2.60;;;;;;;;;;4999615;28;20172;-67
2023/12/23 06:14:57;;;;;;;20.42;2.70;;;;;;;;;;5032906;28;20502;-68
2023/12/23 06:17:24;;;;;;;27.70;3.17;;;;;;;;;;5033273;28;20081;-69
2023/12/23 06:19:50;;;;;;;23.42;2.60;;;;;;;;;;5015467;28;20075;-68
2023/12/23 06:22:16;;;;;;;16.75;2.70;;;;;;;;;;5033330;28;20050;-68
2023/12/23 06:24:42;;;;;;;22.10;3.13;;;;;;;;;;4999470;28;20085;-68
2023/12/23 06:27:09;;;;;;;16.63;2.65;;;;;;;;;;5048739;28;20429;-65
2023/12/23 06:29:35;;;;;;;20.42;2.97;;;;;;;;;;5033433;28;20045;-67
2023/12/23 06:32:02;;;;;;;23.65;3.13;;;;;;;;;;5033080;28;20045;-68
2023/12/23 06:34:28;;;;;;;26.92;3.10;;;;;;;;;;5033194;28;20053;-67
2023/12/23 06:36:54;;;;;;;27.77;2.83;;;;;;;;;;5032984;28;20053;-68
2023/12/23 06:39:20;;;;;;;21.40;2.42;;;;;;;;;;5015715;28;20049;-67
2023/12/23 06:41:46;;;;;;;18.20;2.63;;;;;;;;;;5033287;28;20049;-68
2023/12/23 06:44:12;;;;;;;23.77;2.83;;;;;;;;;;5015250;28;20053;-66
2023/12/23 06:46:38;;;;;;;21.85;2.97;;;;;;;;;;5032945;28;20050;-67
2023/12/23 06:49:04;;;;;;;28.63;3.15;;;;;;;;;;5032789;28;20159;-66
2023/12/23 06:51:31;;;;;;;23.08;2.65;;;;;;;;;;5047966;28;20042;-67
2023/12/23 06:53:57;;;;;;;20.35;2.63;;;;;;;;;;5032762;28;20052;-68
2023/12/23 06:56:23;;;;;;;15.65;1.77;;;;;;;;;;5033079;28;20433;-68
2023/12/23 06:58:49;;;;;;;22.70;2.72;;;;;;;;;;5033424;28;20466;-68
2023/12/23 07:01:15;;;;;;;21.43;2.97;;;;;;;;;;5032723;28;20099;-67
2023/12/23 07:03:42;;;;;;;22.27;2.45;;;;;;;;;;5015650;28;20045;-68
2023/12/23 07:06:12;;;;;;;21.52;2.40;;;;;;;;;;5032794;28;20049;-66
2023/12/23 07:08:39;;;;;;;27.13;2.50;;;;;;;;;;5015921;28;20383;-67
2023/12/23 07:11:05;;;;;;;14.93;2.17;;;;;;;;;;5015688;28;20053;-67
2023/12/23 07:13:32;;;;;;;23.00;2.65;;;;;;;;;;5036124;28;20045;-68
2023/12/23 07:15:58;;;;;;;16.83;2.22;;;;;;;;;;5036373;28;20128;-68
2023/12/23 07:18:24;;;;;;;21.40;2.65;;;;;;;;;;5035928;28;20469;-69
2023/12/23 07:20:51;;;;;;;20.25;2.20;;;;;;;;;;5036256;28;20053;-66
2023/12/23 07:23:17;;;;;;;20.35;2.28;;;;;;;;;;5036144;28;20061;-67
2023/12/23 07:25:43;;;;;;;22.65;2.50;;;;;;;;;;5036113;28;20185;-68
2023/12/23 07:28:09;;;;;;;25.50;2.92;;;;;;;;;;5018350;28;20530;-67
2023/12/23 07:30:44;;;;;;;21.20;2.35;;;;;;;;;;5036039;28;20100;-67
2023/12/23 07:33:10;;;;;;;17.17;2.55;;;;;;;;;;5035864;28;20045;-68
2023/12/23 07:35:37;;;;;;;26.65;2.75;;;;;;;;;;5002989;28;20057;-67
2023/12/23 07:38:03;;;;;;;20.67;2.47;;;;;;;;;;5036523;28;20064;-67
2023/12/23 07:40:29;;;;;;;26.63;3.25;;;;;;;;;;5035590;28;20479;-67
2023/12/23 07:42:55;;;;;;;24.90;3.35;;;;;;;;;;5035900;28;20056;-69
2023/12/23 07:45:23;;;;;;;29.02;2.92;;;;;;;;;;5035790;28;20053;-68
2023/12/23 07:47:49;;;;;;;21.50;3.03;;;;;;;;;;5035416;28;20045;-69
2023/12/23 07:50:15;;;;;;;27.13;3.17;;;;;;;;;;5035639;28;20128;-67
2023/12/23 07:52:41;;;;;;;23.50;2.60;;;;;;;;;;5036045;28;20046;-68
2023/12/23 07:55:08;;;;;;;29.73;2.45;;;;;;;;;;5035614;28;20083;-68
2023/12/23 07:57:34;;;;;;;22.70;3.27;;;;;;;;;;5034869;28;20129;-67
2023/12/23 08:00:00;;;;;;;21.60;2.60;;;;;;;;;;5036029;28;20303;-68
2023/12/23 08:02:26;;;;;;;19.52;2.20;;;;;;;;;;5034219;28;20050;-68
2023/12/23 08:04:52;;;;;;;23.13;2.72;;;;;;;;;;5018755;28;20050;-68
2023/12/23 08:07:18;;;;;;;12.45;1.77;;;;;;;;;;5035232;28;20044;-68
2023/12/23 08:09:44;;;;;;;22.83;2.88;;;;;;;;;;5018548;28;20168;-68
2023/12/23 08:12:11;;;;;;;19.55;2.53;;;;;;;;;;5050574;28;20085;-69
2023/12/23 08:14:37;;;;;;;26.70;2.92;;;;;;;;;;5017756;28;20132;-68
2023/12/23 08:17:03;;;;;;;16.17;3.30;;;;;;;;;;5018013;28;20057;-67
2023/12/23 08:19:29;;;;;;;21.58;2.30;;;;;;;;;;5035590;28;20292;-67
2023/12/23 08:21:56;;;;;;;20.67;2.40;;;;;;;;;;5035018;28;20037;-68
2023/12/23 08:24:22;;;;;;;17.10;2.22;;;;;;;;;;5033933;28;20045;-68
2023/12/23 08:26:49;;;;;;;20.67;2.03;;;;;;;;;;5018109;28;20360;-67
2023/12/23 08:29:15;;;;;;;;;;;;;;;;;;5035200;28;20377;-68
2023/12/23 08:31:43;;;;;;;19.23;2.58;;;;;;;;;;5035515;28;20019;-68
2023/12/23 08:34:09;;;;;;;15.82;2.30;;;;;;;;;;5001150;28;20085;-68
2023/12/23 08:36:35;;;;;;;18.08;2.40;;;;;;;;;;5050140;28;20088;-68
2023/12/23 08:39:01;;;;;;;17.13;2.38;;;;;;;;;;5017159;28;20042;-67
2023/12/23 08:41:27;;;;;;;18.48;2.42;;;;;;;;;;5034630;28;20137;-66
2023/12/23 08:43:53;;;;;;;17.48;2.40;;;;;;;;;;5034952;28;20479;-68
2023/12/23 08:46:19;;;;;;;20.98;1.90;;;;;;;;;;5017867;28;20157;-69
2023/12/23 08:48:45;;;;;;;16.10;1.92;;;;;;;;;;5017029;28;20056;-67
2023/12/23 08:51:11;;;;;;;16.25;1.67;;;;;;;;;;5035234;28;20060;-68
2023/12/23 08:53:37;;;;;;;14.27;1.80;;;;;;;;;;5035252;28;20045;-68
2023/12/23 08:56:03;;;;;;;20.65;2.25;;;;;;;;;;5017371;28;20132;-68
2023/12/23 08:58:30;;;;;;;17.00;2.17;;;;;;;;;;5016971;28;20072;-67
2023/12/23 09:00:57;;;;;;;21.20;2.88;;;;;;;;;;5034408;28;20310;-68
2023/12/23 09:03:23;;;;;;;21.75;2.47;;;;;;;;;;5035019;28;20128;-69
2023/12/23 09:05:50;;;;;;;25.02;2.40;;;;;;;;;;5017025;28;20512;-68
2023/12/23 09:08:17;;;;;;;20.08;1.85;;;;;;;;;;5034011;28;20048;-68
2023/12/23 09:10:43;;;;;;;22.98;2.10;;;;;;;;;;5034188;28;20053;-68
2023/12/23 09:13:09;;;;;;;17.40;2.42;;;;;;;;;;5049466;28;20064;-67
2023/12/23 09:15:35;;;;;;;27.95;2.22;;;;;;;;;;5033945;28;20048;-68
2023/12/23 09:18:01;;;;;;;14.88;2.10;;;;;;;;;;4999987;28;20053;-68
2023/12/23 09:20:29;;;;;;;18.05;1.50;;;;;;;;;;5034674;28;20371;-69
2023/12/23 09:22:55;;;;;;;20.48;2.17;;;;;;;;;;5033877;28;20056;-68
2023/12/23 09:25:21;;;;;;;18.13;2.22;;;;;;;;;;5016123;28;20120;-68
2023/12/23 09:27:47;;;;;;;15.20;1.92;;;;;;;;;;5016080;28;20041;-68
2023/12/23 09:30:13;;;;;;;19.52;1.60;;;;;;;;;;5016741;28;20048;-67
2023/12/23 09:32:39;;;;;;;17.98;1.50;;;;;;;;;;5033670;28;20046;-68
2023/12/23 09:35:05;;;;;;;13.25;1.75;;;;;;;;;;5015938;28;20434;-69
2023/12/23 09:37:32;;;;;;;20.60;1.85;;;;;;;;;;5033589;28;20347;-69
2023/12/23 09:40:01;;;;;;;23.27;2.45;;;;;;;;;;5049184;28;20563;-69
2023/12/23 09:42:30;;;;;;;17.73;1.58;;;;;;;;;;5033510;28;20052;-69
2023/12/23 09:44:57;;;;;;;15.25;1.40;;;;;;;;;;5016075;28;20076;-70
2023/12/23 09:47:24;;;;;;;16.58;2.03;;;;;;;;;;5034103;28;20368;-71
2023/12/23 09:49:51;;;;;;;21.38;1.90;;;;;;;;;;5033480;28;20176;-70
2023/12/23 09:52:17;;;;;;;14.75;1.40;;;;;;;;;;5033452;28;20049;-71
2023/12/23 09:54:47;;;;;;;19.40;2.57;;;;;;;;;;5033582;28;20037;-71
2023/12/23 09:57:14;;;;;;;15.48;1.58;;;;;;;;;;5033929;28;20569;-70
2023/12/23 09:59:40;;;;;;;18.65;1.65;;;;;;;;;;5033132;28;20493;-72
2023/12/23 10:02:06;;;;;;;16.38;1.77;;;;;;;;;;5033721;28;20545;-69
2023/12/23 10:04:33;;;;;;;18.20;1.58;;;;;;;;;;5032914;28;20483;-70
2023/12/23 10:07:00;;;;;;;15.70;1.60;;;;;;;;;;5033215;28;20135;-70
2023/12/23 10:09:30;;;;;;;14.85;2.00;;;;;;;;;;5033193;28;20050;-70
2023/12/23 10:11:56;;;;;;;18.25;2.28;;;;;;;;;;5033228;28;20055;-70
2023/12/23 10:14:25;;;;;;;14.68;1.40;;;;;;;;;;5015783;28;20391;-69
2023/12/23 10:16:51;;;;;;;11.98;0.90;;;;;;;;;;5033144;28;20406;-71
2023/12/23 10:19:17;;;;;;;16.05;1.80;;;;;;;;;;5033735;28;20080;-70
2023/12/23 10:21:43;;;;;;;18.15;1.67;;;;;;;;;;5033236;28;20099;-70
2023/12/23 10:24:09;;;;;;;17.30;1.55;;;;;;;;;;5015664;28;20047;-70
2023/12/23 10:26:36;;;;;;;20.65;1.88;;;;;;;;;;5033763;28;20130;-70
2023/12/23 10:29:04;;;;;;;12.43;1.87;;;;;;;;;;4999021;28;20049;-71
2023/12/23 10:31:31;;;;;;;22.75;1.67;;;;;;;;;;5032852;28;20053;-69
2023/12/23 10:34:00;;;;;;;20.55;1.80;;;;;;;;;;5016477;28;20114;-68
2023/12/23 10:36:26;;;;;;;15.13;1.35;;;;;;;;;;5032958;28;20085;-73
2023/12/23 10:38:58;;;;;;;22.40;1.92;;;;;;;;;;5033016;28;20044;-72
2023/12/23 10:41:30;;;;;;;14.98;1.45;;;;;;;;;;5032926;28;20064;-69
2023/12/23 10:43:56;;;;;;;10.68;1.20;;;;;;;;;;5032893;28;20060;-70
2023/12/23 10:46:24;;;;;;;18.77;1.52;;;;;;;;;;5033742;28;20411;-71
2023/12/23 10:48:51;;;;;;;18.70;1.25;;;;;;;;;;5018747;28;20076;-71
2023/12/23 10:51:17;;;;;;;;;;;;;;;;;;5019725;28;20056;-70
2023/12/23 10:53:44;;;;;;;17.80;1.80;;;;;;;;;;5037235;28;20321;-71
2023/12/23 10:56:10;;;;;;;15.07;1.60;;;;;;;;;;5036718;28;20054;-70
2023/12/23 10:58:36;;;;;;;16.00;2.08;;;;;;;;;;5036543;28;20052;-71
2023/12/23 11:01:03;;;;;;;17.48;1.55;;;;;;;;;;5036928;28;20397;-70
2023/12/23 11:03:33;;;;;;;18.58;1.90;;;;;;;;;;5036577;28;20052;-71
2023/12/23 11:06:00;;;;;;;21.50;1.50;;;;;;;;;;5019628;28;20073;-71
2023/12/23 11:08:26;;;;;;;;;;;;;;;;;;5037058;28;20046;-70
2023/12/23 11:10:53;;;;;;;14.80;1.48;;;;;;;;;;5036931;28;19928;-69
2023/12/23 11:13:22;;;;;;;14.27;1.50;;;;;;;;;;5036441;28;20056;-71
2023/12/23 11:15:48;;;;;;;18.20;1.58;;;;;;;;;;5036885;28;20520;-70
2023/12/23 11:18:14;;;;;;;18.98;1.67;;;;;;;;;;5020121;28;20061;-70
2023/12/23 11:20:49;;;;;;;21.90;1.50;;;;;;;;;;5040368;28;20053;-68
2023/12/23 11:23:35;;;;;;;20.98;1.52;;;;;;;;;;5020770;28;20069;-71
2023/12/23 11:26:02;;;;;;;19.08;1.90;;;;;;;;;;5036943;28;20482;-69
2023/12/23 11:28:36;;;;;;;21.13;1.85;;;;;;;;;;5051453;28;20398;-71
2023/12/23 11:31:03;;;;;;;22.45;1.52;;;;;;;;;;5036739;28;20056;-70
2023/12/23 11:33:35;;;;;;;11.15;1.63;;;;;;;;;;5002520;28;20064;-71
2023/12/23 11:36:02;;;;;;;12.63;1.58;;;;;;;;;;5036050;28;20057;-69
2023/12/23 11:38:28;;;;;;;16.48;1.40;;;;;;;;;;5036843;28;20052;-70
2023/12/23 11:40:55;;;;;;;16.98;1.27;;;;;;;;;;5036006;28;20143;-71
2023/12/23 11:43:22;;;;;;;18.52;1.70;;;;;;;;;;5035998;28;20045;-71
2023/12/23 11:45:48;;;;;;;14.27;1.60;;;;;;;;;;5018867;28;20054;-71
2023/12/23 11:48:14;;;;;;;18.33;1.90;;;;;;;;;;5035713;28;20049;-70
2023/12/23 11:50:41;;;;;;;18.35;1.95;;;;;;;;;;5035649;28;20049;-71
2023/12/23 11:53:07;;;;;;;16.73;1.58;;;;;;;;;;5036195;28;20046;-70
2023/12/23 11:55:34;;;;;;;18.47;1.67;;;;;;;;;;5018446;28;20049;-71
2023/12/23 11:58:00;;;;;;;10.90;0.95;;;;;;;;;;5033884;28;20395;-72
2023/12/23 12:00:27;;;;;;;14.52;1.80;;;;;;;;;;5018168;28;20201;-71
2023/12/23 12:02:53;;;;;;;19.52;1.33;;;;;;;;;;5035370;28;20072;-72
2023/12/23 12:05:19;;;;;;;19.55;1.35;;;;;;;;;;5018756;28;20041;-71
2023/12/23 12:07:45;;;;;;;14.35;2.33;;;;;;;;;;5035305;28;20053;-71
2023/12/23 12:10:14;;;;;;;15.13;1.75;;;;;;;;;;5018010;28;20046;-72
2023/12/23 12:12:40;;;;;;;20.70;1.38;;;;;;;;;;5017569;28;20564;-73
2023/12/23 12:15:07;;;;;;;12.18;1.60;;;;;;;;;;5017917;28;20041;-71
2023/12/23 12:17:33;;;;;;;20.38;1.58;;;;;;;;;;5035038;28;20046;-72
2023/12/23 12:20:00;;;;;;;17.15;1.63;;;;;;;;;;5035274;28;20103;-71
2023/12/23 12:22:26;;;;;;;16.80;1.50;;;;;;;;;;5035396;28;20498;-73
2023/12/23 12:24:52;;;;;;;17.08;1.95;;;;;;;;;;5017524;28;20042;-73
2023/12/23 12:27:18;;;;;;;11.82;1.38;;;;;;;;;;5001352;28;20056;-73
2023/12/23 12:29:45;;;;;;;16.48;1.55;;;;;;;;;;5035080;28;20038;-73
2023/12/23 12:32:14;;;;;;;14.05;1.23;;;;;;;;;;5017612;28;20053;-72
2023/12/23 12:34:40;;;;;;;15.57;1.88;;;;;;;;;;5017288;28;20490;-73
2023/12/23 12:37:08;;;;;;;13.38;1.50;;;;;;;;;;5017256;28;20127;-72
2023/12/23 12:39:35;;;;;;;17.17;1.73;;;;;;;;;;5034874;28;20049;-73
2023/12/23 12:42:01;;;;;;;12.80;1.55;;;;;;;;;;5018146;28;20061;-73
2023/12/23 12:44:27;;;;;;;20.98;1.30;;;;;;;;;;5034880;28;20045;-72
2023/12/23 12:46:54;;;;;;;14.93;1.00;;;;;;;;;;5034342;28;20514;-74
2023/12/23 12:49:23;;;;;;;;;;;;;;;;;;5035946;28;20060;-74
2023/12/23 12:51:51;;;;;;;12.63;1.17;;;;;;;;;;5034585;28;19948;-73
2023/12/23 12:54:18;;;;;;;15.80;1.08;;;;;;;;;;5034864;28;20403;-74
2023/12/23 12:56:45;;;;;;;12.98;1.08;;;;;;;;;;5034557;28;20060;-74
2023/12/23 12:59:11;;;;;;;16.75;1.30;;;;;;;;;;5034724;28;20049;-77
2023/12/23 13:01:37;;;;;;;12.20;1.13;;;;;;;;;;5034771;28;20045;-74
2023/12/23 13:04:03;;;;;;;10.07;0.95;;;;;;;;;;5017494;28;20132;-73
2023/12/23 13:06:30;;;;;;;14.02;0.90;;;;;;;;;;5036169;28;20050;-74
2023/12/23 13:08:56;;;;;;;16.05;1.40;;;;;;;;;;5018450;28;20045;-74
2023/12/23 13:11:22;;;;;;;8.13;1.40;;;;;;;;;;5035492;28;20064;-76
2023/12/23 13:13:48;;;;;;;11.05;1.55;;;;;;;;;;5016661;28;20176;-73
2023/12/23 13:16:15;;;;;;;13.77;1.42;;;;;;;;;;5000671;28;20081;-74
2023/12/23 13:18:41;;;;;;;11.98;1.23;;;;;;;;;;5049369;28;20140;-73
2023/12/23 13:21:07;;;;;;;12.93;1.20;;;;;;;;;;5034815;28;20041;-75
2023/12/23 13:23:33;;;;;;;14.67;1.30;;;;;;;;;;5035243;28;20053;-76
2023/12/23 13:25:59;;;;;;;8.93;0.90;;;;;;;;;;5035386;28;20049;-71
2023/12/23 13:28:26;;;;;;;11.65;0.98;;;;;;;;;;5017274;28;20133;-73
2023/12/23 13:30:52;;;;;;;11.57;0.82;;;;;;;;;;5018170;28;20095;-75
2023/12/23 13:33:18;;;;;;;11.23;1.02;;;;;;;;;;5016935;28;20049;-74
2023/12/23 13:35:44;;;;;;;9.68;0.85;;;;;;;;;;5034384;28;20080;-73
2023/12/23 13:38:10;;;;;;;7.75;1.05;;;;;;;;;;5016927;28;20386;-73
2023/12/23 13:40:36;;;;;;;13.38;1.10;;;;;;;;;;5016928;28;20053;-72
2023/12/23 13:43:02;;;;;;;10.85;0.95;;;;;;;;;;5037175;28;20047;-72
2023/12/23 13:45:28;;;;;;;10.52;1.48;;;;;;;;;;5040247;28;20045;-71
2023/12/23 13:47:54;;;;;;;12.57;1.13;;;;;;;;;;5036485;28;20110;-74
2023/12/23 13:50:21;;;;;;;14.02;1.33;;;;;;;;;;5017580;28;20046;-73
2023/12/23 13:52:47;;;;;;;11.65;1.58;;;;;;;;;;5016488;28;20041;-73
2023/12/23 13:55:13;;;;;;;12.60;1.02;;;;;;;;;;5033587;28;20088;-74
2023/12/23 13:57:40;;;;;;;12.80;1.38;;;;;;;;;;5033897;28;20120;-75
2023/12/23 14:00:06;;;;;;;12.98;1.35;;;;;;;;;;5016135;28;20072;-74
2023/12/23 14:02:32;;;;;;;11.40;1.15;;;;;;;;;;5015983;28;20049;-74
2023/12/23 14:04:59;;;;;;;12.15;1.45;;;;;;;;;;5033510;28;20609;-73
2023/12/23 14:07:25;;;;;;;12.48;1.55;;;;;;;;;;5033449;28;20049;-72
2023/12/23 14:09:51;;;;;;;16.17;1.27;;;;;;;;;;5016265;28;20053;-74
2023/12/23 14:12:17;;;;;;;14.77;1.88;;;;;;;;;;4999660;28;20135;-73
2023/12/23 14:14:43;;;;;;;12.07;1.00;;;;;;;;;;5034051;28;20136;-75
2023/12/23 14:17:09;;;;;;;11.90;0.80;;;;;;;;;;5033523;28;20052;-74
2023/12/23 14:19:35;;;;;;;16.83;2.47;;;;;;;;;;5034010;28;20128;-74
2023/12/23 14:22:01;;;;;;;16.45;2.05;;;;;;;;;;5036170;28;20111;-74
2023/12/23 14:24:28;;;;;;;11.30;1.30;;;;;;;;;;5037537;28;20045;-75
2023/12/23 14:26:54;;;;;;;14.52;1.10;;;;;;;;;;5037141;28;20494;-74
2023/12/23 14:29:20;;;;;;;12.35;1.08;;;;;;;;;;5019679;28;20482;-75
2023/12/23 14:31:48;;;;;;;14.20;1.67;;;;;;;;;;5037250;28;20132;-74